Time;durP1;ratioP1;P1;durP2;ratioP2;P2;SDS_P1;SDS_P2;PMS_P1;PMS_P2;Temp;Humidity;BMP_temperature;BMP_pressure;BME280_temperature;BME280_humidity;BME280_pressure;Samples;Min_cycle;Max_cycle;Signal;HPM_P1;HPM_P2
2021/01/04 00:02:05;;;;;;;72.47;32.45;;;;;;;2.04;100.00;100605.89;1822208;77;21921;-56
2021/01/04 00:09:47;;;;;;;68.37;32.67;;;;;;;2.12;100.00;100597.00;1741647;79;22946;-56
2021/01/04 00:12:26;;;;;;;74.75;35.38;;;;;;;2.04;100.00;100608.55;1720667;82;21180;-56
2021/01/04 00:15:08;;;;;;;69.00;32.45;;;;;;;2.05;100.00;100603.67;1719332;82;21481;-57
2021/01/04 00:17:55;;;;;;;;;;;;;;;2.06;100.00;100601.45;1693283;82;20975;-56
2021/01/04 00:21:01;;;;;;;69.55;31.33;;;;;;;2.06;100.00;100593.46;1719189;82;20175;-57
2021/01/04 00:23:47;;;;;;;79.15;37.58;;;;;;;2.08;100.00;100599.69;1718946;82;21132;-57
2021/01/04 00:26:44;;;;;;;74.77;34.80;;;;;;;2.11;100.00;100598.78;1720714;82;21587;-57
2021/01/04 00:29:12;;;;;;;70.00;32.48;;;;;;;2.17;100.00;100581.91;1719622;82;21398;-57
2021/01/04 00:31:43;;;;;;;69.77;32.20;;;;;;;2.17;100.00;100584.58;1718776;82;21612;-58
2021/01/04 00:34:25;;;;;;;77.47;35.73;;;;;;;2.17;100.00;100589.89;1720136;82;21593;-58
2021/01/04 00:37:21;;;;;;;80.47;34.10;;;;;;;2.22;100.00;100596.09;1721664;82;20946;-58
2021/01/04 00:40:03;;;;;;;71.47;33.58;;;;;;;2.23;100.00;100589.87;1698405;82;21632;-58
2021/01/04 00:42:49;;;;;;;76.40;35.92;;;;;;;2.25;100.00;100593.44;1718477;82;21382;-57
2021/01/04 00:45:29;;;;;;;68.42;33.63;;;;;;;2.25;100.00;100589.44;1717607;82;21153;-58
2021/01/04 00:48:39;;;;;;;64.60;35.53;;;;;;;2.32;100.00;100581.87;1797391;76;27874;-57
2021/01/04 00:51:37;;;;;;;71.28;35.03;;;;;;;2.29;100.00;100584.52;1791435;77;20962;-57
2021/01/04 00:54:37;;;;;;;75.05;35.45;;;;;;;2.33;100.00;100586.30;1814996;76;22793;-58
2021/01/04 00:57:36;;;;;;;74.75;34.40;;;;;;;2.28;100.00;100593.41;1778400;79;21678;-57
2021/01/04 01:00:23;;;;;;;72.32;33.00;;;;;;;2.28;100.00;100594.29;1782806;79;21373;-59
2021/01/04 01:03:37;;;;;;;67.08;32.98;;;;;;;2.32;100.00;100596.50;1753968;79;20981;-57
2021/01/04 01:06:51;;;;;;;69.30;31.17;;;;;;;2.38;100.00;100589.83;1818480;76;22732;-57
2021/01/04 01:09:21;;;;;;;72.30;34.78;;;;;;;2.34;100.00;100607.61;1731396;80;21483;-59
2021/01/04 01:12:12;;;;;;;66.30;33.13;;;;;;;2.36;100.00;100595.17;1778908;79;21358;-57
2021/01/04 01:15:05;;;;;;;69.15;31.93;;;;;;;2.37;100.00;100604.03;1777871;79;21006;-58
2021/01/04 01:18:11;;;;;;;69.32;34.78;;;;;;;2.36;100.00;100595.61;1779948;79;20997;-57
2021/01/04 01:20:40;;;;;;;66.15;30.70;;;;;;;2.38;100.00;100597.81;1780041;79;20938;-57
2021/01/04 01:23:10;;;;;;;66.70;33.42;;;;;;;2.39;100.00;100607.56;1777128;79;21011;-58
2021/01/04 01:25:48;;;;;;;67.58;30.97;;;;;;;2.38;100.00;100595.16;1780794;79;21275;-58
2021/01/04 01:28:56;;;;;;;69.42;32.93;;;;;;;2.41;100.00;100592.50;1749475;80;20954;-57
2021/01/04 01:31:37;;;;;;;66.82;31.95;;;;;;;2.39;100.00;100578.28;1776235;79;20969;-57
2021/01/04 01:34:19;;;;;;;67.45;32.17;;;;;;;2.38;100.00;100573.86;1775503;79;21218;-56
2021/01/04 01:36:58;;;;;;;66.07;32.80;;;;;;;2.38;100.00;100579.18;1751369;80;21100;-57
2021/01/04 01:40:03;;;;;;;73.28;34.03;;;;;;;2.42;100.00;100571.63;1801889;78;22792;-56
2021/01/04 01:43:03;;;;;;;76.80;34.18;;;;;;;2.39;100.00;100582.27;1776063;79;21105;-57
2021/01/04 01:46:01;;;;;;;74.77;34.00;;;;;;;2.39;100.00;100579.61;1775590;79;21390;-56
2021/01/04 01:48:52;;;;;;;67.55;32.05;;;;;;;2.44;100.00;100583.59;1775522;79;21601;-56
2021/01/04 01:52:05;;;;;;;69.50;33.55;;;;;;;2.51;100.00;100584.03;1819835;76;22853;-57
2021/01/04 01:55:14;;;;;;;73.42;33.90;;;;;;;2.50;100.00;100579.13;1805174;77;20986;-58
2021/01/04 01:57:56;;;;;;;69.00;32.00;;;;;;;2.49;100.00;100581.80;1823086;77;21312;-57
2021/01/04 02:01:06;;;;;;;79.55;34.88;;;;;;;2.47;100.00;100585.81;1770097;80;21168;-59
2021/01/04 02:04:02;;;;;;;69.95;33.85;;;;;;;2.46;100.00;100590.70;1770361;80;20990;-57
2021/01/04 02:06:47;;;;;;;73.20;32.73;;;;;;;2.45;100.00;100582.28;1771026;80;20971;-58
2021/01/04 02:09:23;;;;;;;70.17;31.93;;;;;;;2.45;100.00;100578.29;1760731;80;20986;-58
2021/01/04 02:12:09;;;;;;;69.60;32.63;;;;;;;2.45;100.00;100577.38;1769634;80;21383;-58
2021/01/04 02:15:06;;;;;;;71.70;32.80;;;;;;;2.47;100.00;100583.15;1762807;80;20970;-58
2021/01/04 02:18:00;;;;;;;62.50;30.25;;;;;;;2.46;100.00;100580.05;1761807;80;20994;-59
2021/01/04 02:20:58;;;;;;;64.12;30.68;;;;;;;2.46;100.00;100572.06;1766451;80;21578;-58
2021/01/04 02:24:06;;;;;;;67.53;32.15;;;;;;;2.46;100.00;100576.51;1771538;80;21514;-56
2021/01/04 02:26:35;;;;;;;63.17;33.05;;;;;;;2.45;100.00;100575.63;1759523;80;21346;-57
2021/01/04 02:29:15;;;;;;;54.75;27.55;;;;;;;2.43;100.00;100572.06;1756426;80;21121;-57
2021/01/04 02:31:50;;;;;;;67.08;31.77;;;;;;;2.49;100.00;100570.70;1772145;80;21009;-58
2021/01/04 02:34:21;;;;;;;60.90;31.85;;;;;;;2.50;100.00;100573.80;1753160;80;21127;-57
2021/01/04 02:36:53;;;;;;;65.60;30.12;;;;;;;2.53;100.00;100575.58;1754583;80;21109;-58
2021/01/04 02:39:32;;;;;;;70.55;33.38;;;;;;;2.57;100.00;100574.23;1752791;80;22929;-58
2021/01/04 02:42:24;;;;;;;65.80;31.90;;;;;;;2.60;100.00;100580.86;1758484;80;20992;-57
2021/01/04 02:44:52;;;;;;;64.53;33.33;;;;;;;2.65;100.00;100574.63;1755138;80;28240;-57
2021/01/04 02:47:42;;;;;;;66.57;31.50;;;;;;;2.66;100.00;100581.72;1755468;80;21133;-58
2021/01/04 02:50:25;;;;;;;72.05;34.80;;;;;;;2.66;100.00;100579.06;1747439;80;21186;-58
2021/01/04 02:53:35;;;;;;;66.20;32.55;;;;;;;2.63;100.00;100588.84;1793636;78;21368;-57
2021/01/04 02:56:16;;;;;;;58.73;29.80;;;;;;;2.63;100.00;100594.17;1793753;78;21549;-56
2021/01/04 02:59:30;;;;;;;66.28;30.77;;;;;;;2.59;100.00;100592.41;1792964;78;21000;-57
2021/01/04 03:02:30;;;;;;;66.55;35.00;;;;;;;2.61;100.00;100594.64;1795033;78;21015;-56
2021/01/04 03:04:58;;;;;;;66.90;32.28;;;;;;;2.68;100.00;100607.92;1795768;78;21455;-59
2021/01/04 03:07:30;;;;;;;67.22;32.85;;;;;;;2.70;100.00;100591.02;1795617;78;21406;-56
2021/01/04 03:09:59;;;;;;;58.45;31.70;;;;;;;2.73;100.00;100590.14;1789072;78;20984;-56
2021/01/04 03:12:31;;;;;;;67.47;33.13;;;;;;;2.73;100.00;100582.16;1790843;78;21091;-61
2021/01/04 03:15:28;;;;;;;61.90;32.83;;;;;;;2.75;100.00;100583.02;1792308;77;21564;-57
2021/01/04 03:18:21;;;;;;;62.23;30.72;;;;;;;2.76;100.00;100588.78;1792420;78;21100;-57
2021/01/04 03:20:49;;;;;;;63.40;31.77;;;;;;;2.73;100.00;100591.47;1750282;80;21329;-58
2021/01/04 03:23:17;;;;;;;59.27;29.87;;;;;;;2.71;100.00;100598.56;1794254;78;21504;-58
2021/01/04 03:25:54;;;;;;;52.23;28.12;;;;;;;2.71;100.00;100593.23;1793151;78;21005;-56
2021/01/04 03:28:27;;;;;;;62.98;30.23;;;;;;;2.69;100.00;100587.05;1796757;78;21567;-57
2021/01/04 03:30:56;;;;;;;61.18;29.40;;;;;;;2.71;100.00;100586.13;1792436;78;21508;-56
2021/01/04 03:33:24;;;;;;;54.90;29.30;;;;;;;2.72;100.00;100585.27;1792611;78;21955;-58
2021/01/04 03:35:52;;;;;;;57.75;31.02;;;;;;;2.72;100.00;100579.06;1793463;78;21032;-57
2021/01/04 03:38:20;;;;;;;56.58;30.72;;;;;;;2.75;100.00;100575.03;1792351;78;21112;-60
2021/01/04 03:40:48;;;;;;;57.78;32.40;;;;;;;2.77;100.00;100583.88;1791821;78;20980;-58
2021/01/04 03:43:16;;;;;;;51.70;29.23;;;;;;;2.77;100.00;100584.80;1792957;78;21120;-57
2021/01/04 03:45:44;;;;;;;58.52;31.30;;;;;;;2.79;100.00;100585.66;1793948;78;22367;-56
2021/01/04 03:48:13;;;;;;;58.73;30.32;;;;;;;2.77;100.00;100586.13;1793167;79;21017;-57
2021/01/04 03:50:41;;;;;;;66.02;32.95;;;;;;;2.77;100.00;100579.88;1800471;77;21156;-57
2021/01/04 03:53:09;;;;;;;59.20;30.37;;;;;;;2.78;100.00;100573.69;1814931;77;21149;-57
2021/01/04 03:55:38;;;;;;;62.62;32.03;;;;;;;2.78;100.00;100567.03;1813585;77;21116;-55
2021/01/04 03:58:06;;;;;;;59.15;31.70;;;;;;;2.77;100.00;100565.23;1814976;77;21378;-57
2021/01/04 04:00:35;;;;;;;70.75;34.92;;;;;;;2.77;100.00;100559.91;1814228;77;20998;-57
2021/01/04 04:03:04;;;;;;;55.38;30.30;;;;;;;2.75;100.00;100556.38;1814139;77;21022;-56
2021/01/04 04:05:32;;;;;;;57.45;28.70;;;;;;;2.78;100.00;100556.38;1754746;81;21493;-56
2021/01/04 04:08:01;;;;;;;43.75;24.90;;;;;;;2.79;100.00;100561.69;1815432;77;21139;-56
2021/01/04 04:10:29;;;;;;;49.00;26.95;;;;;;;2.80;100.00;100561.23;1813999;77;21946;-57
2021/01/04 04:12:57;;;;;;;51.60;27.30;;;;;;;2.81;100.00;100565.66;1754271;81;20986;-57
2021/01/04 04:15:25;;;;;;;50.35;26.95;;;;;;;2.80;100.00;100558.58;1812536;77;21653;-56
2021/01/04 04:17:53;;;;;;;55.15;28.87;;;;;;;2.83;100.00;100562.57;1815949;77;20990;-56
2021/01/04 04:20:23;;;;;;;49.13;26.02;;;;;;;2.83;100.00;100558.58;1816056;77;20978;-57
2021/01/04 04:22:53;;;;;;;44.88;25.52;;;;;;;2.84;100.00;100566.55;1809551;77;22048;-56
2021/01/04 04:25:23;;;;;;;56.33;28.65;;;;;;;2.85;100.00;100564.77;1817375;77;21123;-56
2021/01/04 04:27:52;;;;;;;50.30;26.75;;;;;;;2.85;100.00;100562.09;1755810;80;21140;-56
2021/01/04 04:30:21;;;;;;;45.65;24.37;;;;;;;2.86;100.00;100555.87;1814786;77;21137;-57
2021/01/04 04:32:52;;;;;;;47.27;26.30;;;;;;;2.87;100.00;100549.64;1815528;77;20970;-60
2021/01/04 04:35:20;;;;;;;51.42;26.80;;;;;;;2.88;100.00;100556.31;1755163;81;21339;-57
2021/01/04 04:37:48;;;;;;;48.95;26.25;;;;;;;2.89;100.00;100549.20;1815304;77;20978;-56
2021/01/04 04:40:20;;;;;;;46.65;25.90;;;;;;;2.89;100.00;100547.88;1814674;77;21286;-57
2021/01/04 04:42:53;;;;;;;48.73;26.57;;;;;;;2.92;100.00;100545.63;1809266;77;22081;-56
2021/01/04 04:45:21;;;;;;;46.98;24.35;;;;;;;2.94;100.00;100539.41;1812011;77;21112;-56
2021/01/04 04:48:03;;;;;;;45.52;23.80;;;;;;;2.97;100.00;100546.03;1812734;77;21369;-56
2021/01/04 04:51:02;;;;;;;44.25;23.20;;;;;;;2.95;100.00;100541.17;1815575;77;21137;-56
2021/01/04 04:53:58;;;;;;;47.73;24.72;;;;;;;2.99;100.00;100546.05;1818882;76;22192;-57
2021/01/04 04:56:52;;;;;;;45.30;24.35;;;;;;;2.93;100.00;100550.97;1756722;79;21580;-58
2021/01/04 04:59:45;;;;;;;46.42;24.82;;;;;;;2.95;100.00;100537.17;1763437;79;21219;-57
2021/01/04 05:02:43;;;;;;;48.20;26.87;;;;;;;2.94;100.00;100540.73;1765480;79;21179;-56
2021/01/04 05:05:19;;;;;;;47.00;27.25;;;;;;;2.92;100.00;100542.51;1710830;79;21647;-56
2021/01/04 05:08:12;;;;;;;52.15;26.68;;;;;;;2.92;100.00;100534.52;1756985;79;20988;-56
2021/01/04 05:10:50;;;;;;;51.50;27.05;;;;;;;2.94;100.00;100539.41;1778925;77;22819;-56
2021/01/04 05:13:29;;;;;;;51.83;29.52;;;;;;;2.89;100.00;100547.88;1717260;81;21381;-58
2021/01/04 05:16:09;;;;;;;44.03;24.92;;;;;;;2.88;100.00;100546.11;1705850;83;21410;-56
2021/01/04 05:19:04;;;;;;;49.75;27.15;;;;;;;2.89;100.00;100534.55;1735564;80;21014;-58
2021/01/04 05:22:03;;;;;;;45.88;24.77;;;;;;;2.90;100.00;100533.66;1747593;80;20994;-57
2021/01/04 05:25:16;;;;;;;42.50;24.02;;;;;;;2.90;100.00;100534.98;1716250;80;21566;-56
2021/01/04 05:28:20;;;;;;;38.50;22.25;;;;;;;2.92;100.00;100547.84;1754262;80;21586;-57
2021/01/04 05:31:25;;;;;;;40.40;23.27;;;;;;;2.97;100.00;100543.36;1807596;77;22691;-56
2021/01/04 05:34:07;;;;;;;44.35;25.60;;;;;;;2.92;100.00;100555.83;1783810;78;21092;-56
2021/01/04 05:37:05;;;;;;;48.60;27.93;;;;;;;2.97;100.00;100542.48;1857466;75;23201;-56
2021/01/04 05:40:06;;;;;;;48.78;24.57;;;;;;;2.90;100.00;100532.32;1847279;75;21128;-56
2021/01/04 05:42:48;;;;;;;45.67;26.45;;;;;;;2.94;100.00;100540.73;1798861;78;21404;-57
2021/01/04 05:45:38;;;;;;;52.98;28.42;;;;;;;2.99;100.00;100556.25;1791660;79;21025;-55
2021/01/04 05:48:32;;;;;;;51.98;30.37;;;;;;;3.03;100.00;100557.97;1774446;78;20974;-57
2021/01/04 05:51:14;;;;;;;48.80;28.90;;;;;;;3.03;100.00;100548.64;1794462;79;21009;-57
2021/01/04 05:53:44;;;;;;;48.17;29.00;;;;;;;3.02;100.00;100560.20;1799442;79;20967;-56
2021/01/04 05:56:23;;;;;;;48.25;27.58;;;;;;;3.02;100.00;100568.20;1792487;79;22281;-56
2021/01/04 05:58:52;;;;;;;46.60;27.27;;;;;;;3.04;100.00;100565.55;1784573;79;22162;-58
2021/01/04 06:01:25;;;;;;;51.00;26.93;;;;;;;3.07;100.00;100565.06;1787862;78;21612;-58
2021/01/04 06:04:02;;;;;;;44.83;26.87;;;;;;;3.07;100.00;100563.73;1791465;79;21131;-54
2021/01/04 06:06:51;;;;;;;43.92;24.98;;;;;;;3.07;100.00;100570.39;1802629;78;21636;-56
2021/01/04 06:09:20;;;;;;;51.48;29.10;;;;;;;3.08;100.00;100568.16;1796868;79;21379;-56
2021/01/04 06:11:56;;;;;;;58.73;31.87;;;;;;;3.06;100.00;100563.75;1798038;78;21053;-56
2021/01/04 06:14:27;;;;;;;47.78;27.10;;;;;;;3.07;100.00;100570.39;1780844;79;21570;-59
2021/01/04 06:17:01;;;;;;;59.93;33.80;;;;;;;3.10;100.00;100571.72;1796056;78;21212;-57
2021/01/04 06:19:32;;;;;;;57.48;31.95;;;;;;;3.12;100.00;100566.37;1781248;79;21208;-58
2021/01/04 06:22:12;;;;;;;49.67;28.20;;;;;;;3.11;100.00;100562.82;1767413;79;21216;-58
2021/01/04 06:24:47;;;;;;;54.70;28.98;;;;;;;3.17;100.00;100558.34;1931469;73;22032;-59
2021/01/04 06:27:19;;;;;;;62.73;33.67;;;;;;;3.10;100.00;100569.05;1859350;74;20906;-56
2021/01/04 06:29:50;;;;;;;60.73;33.90;;;;;;;3.10;100.00;100566.39;1826423;77;21200;-53
2021/01/04 06:32:28;;;;;;;63.80;35.13;;;;;;;3.13;100.00;100569.02;1823514;77;21048;-58
2021/01/04 06:35:23;;;;;;;61.00;33.25;;;;;;;3.13;100.00;100578.79;1853445;76;20985;-66
2021/01/04 06:37:53;;;;;;;72.37;39.13;;;;;;;3.13;100.00;100575.67;1852390;76;21120;-58
2021/01/04 06:40:38;;;;;;;69.77;40.10;;;;;;;3.13;100.00;100577.00;1847939;76;21526;-57
2021/01/04 06:43:31;;;;;;;67.95;38.05;;;;;;;3.12;100.00;100589.90;1821761;75;21384;-59
2021/01/04 06:46:32;;;;;;;59.42;35.28;;;;;;;3.18;100.00;100590.30;1817709;76;22827;-59
2021/01/04 06:49:28;;;;;;;54.63;32.28;;;;;;;3.17;100.00;100591.66;1784554;77;21213;-54
2021/01/04 06:52:39;;;;;;;61.98;33.75;;;;;;;3.18;100.00;100586.76;1787619;79;22225;-60
2021/01/04 06:55:41;;;;;;;50.55;29.25;;;;;;;3.21;100.00;100593.41;1786712;77;21177;-59
2021/01/04 06:58:32;;;;;;;58.58;31.70;;;;;;;3.26;100.00;100592.48;1792775;77;23854;-57
2021/01/04 07:01:45;;;;;;;49.83;28.17;;;;;;;3.25;100.00;100596.47;1791274;77;21017;-56
2021/01/04 07:04:48;;;;;;;56.65;31.02;;;;;;;3.26;100.00;100587.61;1789205;79;21128;-55
2021/01/04 07:08:02;;;;;;;59.18;30.37;;;;;;;3.23;100.00;100587.61;1753982;78;22229;-50
2021/01/04 07:10:58;;;;;;;55.78;33.25;;;;;;;3.19;100.00;100596.52;1745974;79;21387;-54
2021/01/04 07:13:38;;;;;;;50.30;28.15;;;;;;;3.17;100.00;100596.98;1753261;78;21005;-52
2021/01/04 07:16:19;;;;;;;58.78;32.55;;;;;;;3.20;100.00;100590.31;1745058;79;21432;-51
2021/01/04 07:19:30;;;;;;;50.30;31.12;;;;;;;3.20;100.00;100579.66;1743890;79;21163;-58
2021/01/04 07:22:22;;;;;;;66.87;35.03;;;;;;;3.22;100.00;100571.19;1744338;79;21293;-56
2021/01/04 07:25:22;;;;;;;65.85;36.33;;;;;;;3.29;100.00;100576.91;1764603;78;22823;-53
2021/01/04 07:28:13;;;;;;;61.15;33.28;;;;;;;3.29;100.00;100563.58;1763698;80;21240;-49
2021/01/04 07:30:55;;;;;;;55.95;32.83;;;;;;;3.32;100.00;100571.11;1763640;79;21405;-59
2021/01/04 07:33:59;;;;;;;51.42;28.52;;;;;;;3.39;100.00;100566.16;1815574;76;22687;-53
2021/01/04 07:36:42;;;;;;;48.63;28.23;;;;;;;3.36;100.00;100570.65;1771265;79;21472;-57
2021/01/04 07:39:51;;;;;;;50.33;32.20;;;;;;;3.38;100.00;100572.39;1789541;76;27951;-56
2021/01/04 07:43:05;;;;;;;46.50;27.75;;;;;;;3.36;100.00;100570.65;1771394;79;21096;-55
2021/01/04 07:46:28;;;;;;;54.90;31.48;;;;;;;3.44;100.00;100574.12;1772797;79;21390;-56
2021/01/04 07:49:30;;;;;;;49.45;29.12;;;;;;;3.44;100.00;100559.91;1772709;79;21067;-54
2021/01/04 07:52:51;;;;;;;44.83;26.57;;;;;;;3.49;100.00;100572.30;1772579;79;21562;-58
2021/01/04 07:55:59;;;;;;;56.37;30.40;;;;;;;3.52;100.00;100563.41;1771734;79;21136;-57
2021/01/04 07:58:55;;;;;;;54.65;31.55;;;;;;;3.56;100.00;100560.67;1773081;79;20943;-56
2021/01/04 08:01:43;;;;;;;57.78;32.78;;;;;;;3.53;100.00;100574.05;1753081;79;21207;-57
2021/01/04 08:04:22;;;;;;;53.25;29.70;;;;;;;3.52;100.00;100570.95;1773095;79;21112;-58
2021/01/04 08:07:40;;;;;;;59.00;31.10;;;;;;;3.54;100.00;100566.48;1772649;79;21002;-56
2021/01/04 08:10:49;;;;;;;61.60;31.52;;;;;;;3.52;100.00;100577.62;1772241;79;21025;-57
2021/01/04 08:14:09;;;;;;;57.08;37.10;;;;;;;3.61;100.00;100568.64;1838618;74;28014;-61
2021/01/04 08:16:51;;;;;;;56.83;33.30;;;;;;;3.59;100.00;100576.67;1824357;76;21545;-57
2021/01/04 08:19:19;;;;;;;58.02;32.42;;;;;;;3.62;100.00;100576.66;1825207;76;21360;-56
2021/01/04 08:22:26;;;;;;;59.42;32.70;;;;;;;3.63;100.00;100586.42;1825001;76;22161;-56
2021/01/04 08:25:00;;;;;;;67.72;35.52;;;;;;;3.62;100.00;100596.66;1754781;79;20962;-56
2021/01/04 08:28:27;;;;;;;62.17;36.23;;;;;;;3.68;100.00;100587.27;1856366;75;22736;-54
2021/01/04 08:31:06;;;;;;;62.33;34.20;;;;;;;3.65;100.00;100593.95;1801688;77;21601;-54
2021/01/04 08:33:53;;;;;;;77.80;40.00;;;;;;;3.66;100.00;100591.70;1748372;78;21597;-54
2021/01/04 08:36:57;;;;;;;69.55;35.13;;;;;;;3.70;100.00;100591.70;1797930;78;21024;-54
2021/01/04 08:39:33;;;;;;;54.73;31.82;;;;;;;3.68;100.00;100589.93;1763322;78;21045;-55
2021/01/04 08:42:27;;;;;;;66.97;35.90;;;;;;;3.68;100.00;100591.72;1755472;79;21565;-55
2021/01/04 08:45:10;;;;;;;66.22;37.60;;;;;;;3.67;100.00;100598.84;1756720;80;20939;-55
2021/01/04 08:47:51;;;;;;;69.97;39.90;;;;;;;3.70;100.00;100594.36;1757458;80;21305;-55
2021/01/04 08:50:34;;;;;;;68.45;39.73;;;;;;;3.80;100.00;100593.39;1827607;77;22909;-53
2021/01/04 08:53:13;;;;;;;76.17;42.35;;;;;;;3.77;100.00;100596.06;1820371;77;20966;-56
2021/01/04 08:55:41;;;;;;;72.27;39.73;;;;;;;3.77;100.00;100593.40;1818789;77;21381;-54
2021/01/04 08:58:30;;;;;;;73.05;38.20;;;;;;;3.80;100.00;100588.05;1816826;77;21025;-63
2021/01/04 09:01:01;;;;;;;76.57;39.85;;;;;;;3.84;100.00;100591.13;1817324;77;21001;-55
2021/01/04 09:03:37;;;;;;;68.22;37.65;;;;;;;3.93;100.00;100588.35;1816323;76;22828;-60
2021/01/04 09:06:26;;;;;;;73.75;41.53;;;;;;;3.86;100.00;100581.31;1809241;77;21023;-54
2021/01/04 09:09:11;;;;;;;73.78;40.88;;;;;;;3.85;100.00;100575.55;1808389;77;21428;-57
2021/01/04 09:12:07;;;;;;;77.35;40.75;;;;;;;3.86;100.00;100579.98;1809186;77;20992;-57
2021/01/04 09:15:13;;;;;;;67.60;37.75;;;;;;;3.90;100.00;100582.61;1809086;76;22888;-54
2021/01/04 09:17:48;;;;;;;67.17;35.92;;;;;;;3.83;100.00;100581.33;1738201;79;20966;-57
2021/01/04 09:20:25;;;;;;;69.32;36.90;;;;;;;3.83;100.00;100580.00;1762177;79;21398;-56
2021/01/04 09:23:13;;;;;;;76.60;37.63;;;;;;;3.87;100.00;100574.62;1762448;79;21585;-54
2021/01/04 09:26:01;;;;;;;80.83;39.85;;;;;;;3.91;100.00;100576.82;1746644;79;20991;-56
2021/01/04 09:28:48;;;;;;;84.32;41.40;;;;;;;3.93;100.00;100576.34;1762231;79;21044;-57
2021/01/04 09:31:17;;;;;;;70.37;37.40;;;;;;;3.94;100.00;100578.11;1758065;79;21565;-53
2021/01/04 09:33:50;;;;;;;69.40;36.73;;;;;;;3.99;100.00;100573.61;1762441;78;21369;-54
2021/01/04 09:36:22;;;;;;;67.47;38.02;;;;;;;4.01;100.00;100577.17;1763545;79;21018;-59
2021/01/04 09:39:06;;;;;;;63.95;35.73;;;;;;;4.03;100.00;100582.02;1733213;79;20997;-58
2021/01/04 09:41:34;;;;;;;78.02;41.65;;;;;;;4.11;100.00;100573.50;1761214;79;21564;-54
2021/01/04 09:44:04;;;;;;;72.70;38.95;;;;;;;4.09;100.00;100572.61;1761331;79;21156;-58
2021/01/04 09:46:50;;;;;;;63.73;37.42;;;;;;;4.09;100.00;100572.61;1762045;78;22179;-55
2021/01/04 09:49:25;;;;;;;73.62;40.75;;;;;;;4.09;100.00;100571.28;1762353;78;21533;-56
2021/01/04 09:52:01;;;;;;;71.17;40.85;;;;;;;4.10;100.00;100571.74;1732876;79;21586;-54
2021/01/04 09:54:41;;;;;;;73.60;39.75;;;;;;;4.11;100.00;100562.83;1761497;79;21136;-56
2021/01/04 09:57:20;;;;;;;70.53;43.53;;;;;;;4.15;100.00;100563.20;1841681;75;27941;-58
2021/01/04 09:59:49;;;;;;;70.95;39.42;;;;;;;4.12;100.00;100563.25;1848263;76;20996;-61
2021/01/04 10:02:29;;;;;;;66.55;35.03;;;;;;;4.14;100.00;100558.77;1827551;76;21461;-60
2021/01/04 10:05:08;;;;;;;72.65;37.60;;;;;;;4.12;100.00;100569.92;1830460;76;20961;-60
2021/01/04 10:07:36;;;;;;;73.72;39.90;;;;;;;4.12;100.00;100561.91;1827830;76;20953;-52
2021/01/04 10:10:13;;;;;;;77.20;39.83;;;;;;;4.13;100.00;100560.13;1830001;76;21497;-58
2021/01/04 10:12:41;;;;;;;75.35;38.05;;;;;;;4.14;100.00;100562.77;1828713;76;20918;-57
2021/01/04 10:15:26;;;;;;;76.22;40.17;;;;;;;4.13;100.00;100557.00;1827690;76;21181;-52
2021/01/04 10:17:59;;;;;;;70.78;38.42;;;;;;;4.15;100.00;100556.53;1805213;76;20965;-57
2021/01/04 10:20:35;;;;;;;72.17;40.23;;;;;;;4.18;100.00;100552.95;1829133;76;21443;-51
2021/01/04 10:23:03;;;;;;;72.30;39.90;;;;;;;4.19;100.00;100552.92;1829836;76;20894;-60
2021/01/04 10:25:39;;;;;;;64.85;37.10;;;;;;;4.18;100.00;100549.83;1827093;76;20953;-54
2021/01/04 10:28:07;;;;;;;67.90;37.70;;;;;;;4.18;100.00;100561.84;1831445;76;21364;-51
2021/01/04 10:30:35;;;;;;;71.82;36.10;;;;;;;4.18;100.00;100559.63;1831357;76;20988;-54
2021/01/04 10:33:09;;;;;;;72.30;38.65;;;;;;;4.17;100.00;100553.41;1829441;76;20961;-54
2021/01/04 10:35:37;;;;;;;82.02;42.98;;;;;;;4.19;100.00;100554.27;1829148;76;21075;-56
2021/01/04 10:38:20;;;;;;;74.87;38.55;;;;;;;4.19;100.00;100547.59;1829404;76;21000;-53
2021/01/04 10:40:48;;;;;;;;;;;;;;;4.22;100.00;100544.47;1829267;76;21345;-56
2021/01/04 10:43:20;;;;;;;87.55;40.00;;;;;;;4.22;100.00;100540.47;1829158;76;20150;-60
2021/01/04 10:45:49;;;;;;;86.72;40.40;;;;;;;4.20;100.00;100546.68;1827353;76;21366;-58
2021/01/04 10:48:23;;;;;;;102.27;44.30;;;;;;;4.20;100.00;100545.80;1831013;76;21099;-56
2021/01/04 10:50:57;;;;;;;93.95;44.08;;;;;;;4.22;100.00;100551.14;1828541;76;21127;-52
2021/01/04 10:53:36;;;;;;;87.47;44.73;;;;;;;4.23;100.00;100551.57;1828620;76;21357;-59
2021/01/04 10:56:19;;;;;;;78.90;40.40;;;;;;;4.23;100.00;100550.23;1828862;76;20957;-56
2021/01/04 10:58:55;;;;;;;71.28;39.15;;;;;;;4.23;100.00;100560.92;1828864;76;21103;-59
2021/01/04 11:01:25;;;;;;;92.45;42.20;;;;;;;4.23;100.00;100553.79;1831109;76;20937;-60
2021/01/04 11:04:11;;;;;;;81.40;42.75;;;;;;;4.24;100.00;100558.22;1806271;76;21012;-51
2021/01/04 11:07:00;;;;;;;71.30;39.67;;;;;;;4.31;100.00;100553.69;1823227;75;22718;-57
2021/01/04 11:09:34;;;;;;;76.80;41.80;;;;;;;4.23;100.00;100552.91;1815227;76;21001;-60
2021/01/04 11:12:17;;;;;;;82.45;40.63;;;;;;;4.20;100.00;100557.36;1795326;77;22265;-55
2021/01/04 11:15:01;;;;;;;77.58;40.25;;;;;;;4.19;100.00;100556.94;1792966;77;20971;-54
2021/01/04 11:17:43;;;;;;;74.87;39.95;;;;;;;4.25;100.00;100564.44;1805155;76;22804;-57
2021/01/04 11:20:17;;;;;;;86.85;44.90;;;;;;;4.20;100.00;100562.70;1804835;77;21049;-57
2021/01/04 11:22:45;;;;;;;96.63;49.15;;;;;;;4.19;100.00;100566.28;1803923;77;21569;-60
2021/01/04 11:25:14;;;;;;;90.42;47.13;;;;;;;4.22;100.00;100559.16;1803717;77;21586;-53
2021/01/04 11:27:42;;;;;;;97.02;50.08;;;;;;;4.22;100.00;100561.83;1803780;77;21013;-54
2021/01/04 11:30:12;;;;;;;88.47;47.17;;;;;;;4.22;100.00;100556.48;1802571;77;20968;-57
2021/01/04 11:32:40;;;;;;;78.40;43.23;;;;;;;4.22;100.00;100559.16;1803422;77;21657;-54
2021/01/04 11:35:09;;;;;;;89.47;43.02;;;;;;;4.23;100.00;100547.56;1803844;77;21206;-55
2021/01/04 11:37:38;;;;;;;82.97;42.55;;;;;;;4.24;100.00;100546.20;1804075;77;21128;-56
2021/01/04 11:40:07;;;;;;;87.02;44.18;;;;;;;4.26;100.00;100536.83;1801480;77;21049;-57
2021/01/04 11:42:35;;;;;;;90.05;45.75;;;;;;;4.30;100.00;100535.91;1800585;77;20966;-60
2021/01/04 11:45:08;;;;;;;95.00;45.17;;;;;;;4.31;100.00;100529.66;1802290;77;20962;-62
2021/01/04 11:47:36;;;;;;;95.30;43.48;;;;;;;4.30;100.00;100526.55;1800305;77;21375;-58
2021/01/04 11:50:09;;;;;;;78.52;39.65;;;;;;;4.30;100.00;100530.11;1803966;77;21561;-57
2021/01/04 11:52:37;;;;;;;79.92;41.10;;;;;;;4.29;100.00;100532.80;1802773;77;21048;-58
2021/01/04 11:55:07;;;;;;;81.22;40.48;;;;;;;4.23;100.00;100529.77;1801672;77;21120;-54
2021/01/04 11:57:36;;;;;;;77.55;40.25;;;;;;;4.22;100.00;100533.34;1801569;77;21101;-56
2021/01/04 12:00:11;;;;;;;89.95;45.08;;;;;;;4.23;100.00;100536.89;1801854;77;21363;-53
2021/01/04 12:02:39;;;;;;;84.87;42.78;;;;;;;4.24;100.00;100530.64;1801730;77;21112;-56
2021/01/04 12:05:10;;;;;;;87.02;43.45;;;;;;;4.26;100.00;100527.48;1801652;77;21006;-63
2021/01/04 12:07:38;;;;;;;83.47;41.48;;;;;;;4.26;100.00;100532.83;1801651;79;21096;-62
2021/01/04 12:10:09;;;;;;;83.10;40.75;;;;;;;4.26;100.00;100540.42;1802017;77;21529;-63
2021/01/04 12:12:38;;;;;;;77.55;38.98;;;;;;;4.27;100.00;100542.63;1772648;77;21409;-62
2021/01/04 12:15:09;;;;;;;77.53;37.55;;;;;;;4.27;100.00;100546.64;1801644;77;21120;-63
2021/01/04 12:17:37;;;;;;;86.40;41.95;;;;;;;4.27;100.00;100555.98;1807746;77;21100;-62
2021/01/04 12:20:07;;;;;;;85.35;42.03;;;;;;;4.25;100.00;100554.64;1808677;77;21152;-62
2021/01/04 12:22:35;;;;;;;84.00;40.12;;;;;;;4.23;100.00;100560.46;1810456;77;21590;-62
2021/01/04 12:25:04;;;;;;;73.15;37.88;;;;;;;4.26;100.00;100552.85;1811863;77;22336;-62